createdAt,value
2022-12-15T00:01:51.829Z,40.80
2022-12-15T00:07:14.695Z,38.20
2022-12-15T00:12:38.970Z,34.50
2022-12-15T00:18:03.245Z,36.00
2022-12-15T00:23:31.587Z,43.40
2022-12-15T00:34:20.188Z,38.50
2022-12-15T00:39:25.622Z,43.70
2022-12-15T00:44:30.237Z,46.80
2022-12-15T00:49:54.085Z,42.70
2022-12-15T00:55:17.891Z,39.20
2022-12-15T01:00:42.638Z,40.80
2022-12-15T01:06:04.980Z,42.90
2022-12-15T01:11:28.236Z,48.40
2022-12-15T01:16:52.113Z,49.70
2022-12-15T01:21:57.141Z,43.00
2022-12-15T01:27:02.440Z,45.40
2022-12-15T01:32:07.045Z,47.90
2022-12-15T01:37:11.494Z,46.50
2022-12-15T01:42:16.546Z,42.10
2022-12-15T01:47:26.077Z,41.80
2022-12-15T01:52:31.504Z,41.70
2022-12-15T01:57:38.296Z,46.00
2022-12-15T02:02:43.056Z,41.90
2022-12-15T02:07:47.032Z,42.30
2022-12-15T02:13:07.493Z,38.80
2022-12-15T02:18:23.294Z,37.00
2022-12-15T02:23:53.235Z,41.40
2022-12-15T02:29:09.311Z,45.10
2022-12-15T02:34:24.363Z,40.00
2022-12-15T02:39:29.868Z,38.70
2022-12-15T02:44:54.988Z,40.60
2022-12-15T02:50:31.492Z,39.00
2022-12-15T02:55:40.742Z,37.60
2022-12-15T03:00:59.148Z,37.20
2022-12-15T03:06:06.244Z,36.30
2022-12-15T03:11:12.486Z,44.10
2022-12-15T03:16:17.086Z,38.40
2022-12-15T03:21:22.307Z,38.40
2022-12-15T03:26:26.945Z,41.20
2022-12-15T03:31:30.670Z,40.70
2022-12-15T03:36:35.530Z,40.50
2022-12-15T03:41:40.317Z,39.40
2022-12-15T03:46:46.006Z,41.30
2022-12-15T03:51:49.507Z,40.90
2022-12-15T03:56:54.494Z,37.20
2022-12-15T04:01:59.921Z,39.50
2022-12-15T04:07:04.926Z,42.70
2022-12-15T04:12:13.194Z,42.40
2022-12-15T04:17:18.257Z,37.10
2022-12-15T04:22:21.919Z,40.50
2022-12-15T04:27:46.316Z,44.30
2022-12-15T04:33:11.195Z,40.90
2022-12-15T04:38:34.167Z,39.70
2022-12-15T04:44:00.082Z,37.50
2022-12-15T04:49:23.663Z,40.70
2022-12-15T04:54:47.256Z,43.20
2022-12-15T05:00:11.891Z,43.40
2022-12-15T05:05:34.448Z,44.20
2022-12-15T05:10:56.527Z,42.70
2022-12-15T05:16:18.463Z,42.40
2022-12-15T05:21:41.319Z,48.90
2022-12-15T05:27:05.146Z,41.50
2022-12-15T05:32:10.233Z,41.30
2022-12-15T05:37:14.612Z,40.10
2022-12-15T05:42:19.272Z,38.90
2022-12-15T05:47:24.238Z,37.70
2022-12-15T05:52:27.762Z,42.10
2022-12-15T05:57:31.615Z,45.30
2022-12-15T06:02:36.354Z,48.80
2022-12-15T06:07:40.630Z,41.30
2022-12-15T06:12:45.496Z,41.20
2022-12-15T06:17:49.931Z,41.00
2022-12-15T06:22:53.936Z,41.00
2022-12-15T06:28:01.710Z,43.60
2022-12-15T06:33:07.917Z,46.60
2022-12-15T06:38:12.647Z,42.70
2022-12-15T06:43:17.527Z,39.80
2022-12-15T06:48:21.867Z,43.30
2022-12-15T06:53:26.144Z,52.10
2022-12-15T06:58:31.248Z,43.80
2022-12-15T07:03:37.353Z,33.10
2022-12-15T07:08:42.110Z,43.50
2022-12-15T07:13:50.132Z,44.60
2022-12-15T07:23:59.171Z,47.00
2022-12-15T07:29:04.720Z,45.10
2022-12-15T07:34:09.877Z,39.80
2022-12-15T07:39:13.798Z,51.50
2022-12-15T07:44:19.243Z,51.20
2022-12-15T07:52:44.859Z,53.80
2022-12-15T07:57:49.075Z,45.90
2022-12-15T08:02:53.230Z,45.80
2022-12-15T08:07:59.173Z,44.90
2022-12-15T08:13:04.079Z,38.40
2022-12-15T08:18:09.797Z,40.00
2022-12-15T08:23:14.945Z,47.50
2022-12-15T08:28:19.066Z,48.30
2022-12-15T08:33:23.997Z,47.00
2022-12-15T08:38:28.255Z,46.00
2022-12-15T08:43:33.998Z,39.70
2022-12-15T08:48:39.209Z,49.10
2022-12-15T08:53:44.610Z,47.00
2022-12-15T08:58:51.174Z,47.60
2022-12-15T09:03:57.718Z,38.00
2022-12-15T09:09:05.182Z,48.50
2022-12-15T09:14:10.192Z,47.00
2022-12-15T09:19:15.118Z,49.10
2022-12-15T09:24:28.883Z,45.20
2022-12-15T09:29:38.699Z,49.10
2022-12-15T09:34:42.853Z,34.50
2022-12-15T09:39:46.734Z,52.90
2022-12-15T09:45:00.270Z,52.30
2022-12-15T09:50:11.319Z,50.50
2022-12-15T09:55:24.419Z,47.60
2022-12-15T10:00:52.576Z,50.10
2022-12-15T10:06:22.287Z,52.90
2022-12-15T10:11:50.635Z,58.00
2022-12-15T10:17:19.048Z,35.60
2022-12-15T10:22:31.883Z,53.40
2022-12-15T10:27:58.719Z,44.30
2022-12-15T10:33:06.591Z,51.60
2022-12-15T10:38:53.029Z,51.60
2022-12-15T10:43:59.072Z,56.60
2022-12-15T10:49:09.755Z,54.00
2022-12-15T10:54:16.809Z,43.50
2022-12-15T10:59:34.533Z,47.50
2022-12-15T11:04:38.865Z,53.00
2022-12-15T11:09:43.454Z,52.10
2022-12-15T11:14:52.467Z,44.90
2022-12-15T11:20:03.844Z,31.90
2022-12-15T11:25:36.614Z,41.90
2022-12-15T11:30:48.423Z,47.20
2022-12-15T11:36:20.813Z,44.10
2022-12-15T11:41:43.840Z,47.50
2022-12-15T11:46:57.710Z,47.80
2022-12-15T11:52:11.340Z,44.30
2022-12-15T11:57:42.014Z,50.50
2022-12-15T12:03:09.661Z,45.70
2022-12-15T12:08:36.506Z,51.20
2022-12-15T12:13:59.353Z,51.10
2022-12-15T12:19:21.170Z,47.00
2022-12-15T12:24:32.893Z,50.30
2022-12-15T12:30:01.246Z,52.90
2022-12-15T12:40:41.195Z,45.00
2022-12-15T12:46:26.512Z,50.70
2022-12-15T12:51:34.984Z,51.20
2022-12-15T12:56:43.854Z,50.10
2022-12-15T13:01:49.693Z,51.90
2022-12-15T13:06:56.512Z,41.60
2022-12-15T13:12:34.298Z,50.20
2022-12-15T13:17:43.044Z,48.30
2022-12-15T13:22:50.520Z,50.00
2022-12-15T13:28:01.639Z,53.70
2022-12-15T13:33:19.811Z,61.50
2022-12-15T13:43:50.507Z,46.20
2022-12-15T13:49:08.168Z,55.40
2022-12-15T13:54:19.436Z,46.90
2022-12-15T14:00:08.396Z,50.40
2022-12-15T14:05:13.689Z,51.40
2022-12-15T14:10:21.969Z,49.20
2022-12-15T14:20:42.219Z,50.90
2022-12-15T14:25:56.545Z,43.30
2022-12-15T14:31:05.634Z,47.10
2022-12-15T14:36:13.880Z,50.80
2022-12-15T14:41:41.131Z,47.10
2022-12-15T14:46:50.210Z,44.70
2022-12-15T14:52:07.331Z,44.10
2022-12-15T14:57:26.211Z,44.50
2022-12-15T15:02:31.186Z,38.10
2022-12-15T15:07:39.597Z,37.10
2022-12-15T15:12:46.343Z,44.40
2022-12-15T15:17:53.481Z,40.50
2022-12-15T15:23:12.562Z,42.40
2022-12-15T15:28:30.135Z,40.80
2022-12-15T15:33:35.412Z,36.50
2022-12-15T15:38:41.210Z,33.50
2022-12-15T15:43:44.781Z,28.60
2022-12-15T15:48:50.161Z,24.80
2022-12-15T15:53:58.549Z,27.90
2022-12-15T15:59:11.653Z,21.90
2022-12-15T16:04:15.093Z,24.60
2022-12-15T16:09:19.946Z,25.30
2022-12-15T16:14:24.431Z,20.70
2022-12-15T16:19:30.226Z,22.30
2022-12-15T16:24:37.610Z,24.70
2022-12-15T16:29:43.364Z,23.40
2022-12-15T16:34:47.516Z,21.20
2022-12-15T16:39:51.409Z,25.30
2022-12-15T16:44:56.417Z,22.70
2022-12-15T16:50:00.701Z,22.00
2022-12-15T16:55:05.705Z,18.60
2022-12-15T17:00:25.943Z,17.10
2022-12-15T17:05:34.880Z,22.00
2022-12-15T17:10:38.876Z,22.20
2022-12-15T17:15:43.267Z,22.50
2022-12-15T17:20:48.173Z,22.30
2022-12-15T17:31:25.971Z,17.70
2022-12-15T17:36:31.786Z,19.40
2022-12-15T17:41:58.611Z,24.20
2022-12-15T17:46:59.958Z,24.10
2022-12-15T17:52:17.110Z,25.70
2022-12-15T17:57:20.704Z,24.60
2022-12-15T18:02:24.811Z,44.10
2022-12-15T18:07:28.761Z,52.40
2022-12-15T18:12:32.560Z,27.30
2022-12-15T18:17:36.866Z,30.00
2022-12-15T18:22:40.898Z,31.30
2022-12-15T18:27:46.303Z,31.90
2022-12-15T18:32:56.654Z,27.70
2022-12-15T18:38:01.964Z,31.10
2022-12-15T18:43:17.561Z,30.20
2022-12-15T18:48:25.653Z,26.80
2022-12-15T18:53:33.026Z,31.00
2022-12-15T18:58:42.917Z,42.30
2022-12-15T19:03:46.646Z,30.40
2022-12-15T19:08:51.760Z,30.10
2022-12-15T19:13:56.946Z,27.40
2022-12-15T19:19:20.031Z,31.90
2022-12-15T19:24:49.622Z,33.50
2022-12-15T19:29:55.112Z,37.60
2022-12-15T19:34:59.838Z,25.30
2022-12-15T19:40:07.448Z,22.90
2022-12-15T19:50:26.376Z,23.40
2022-12-15T19:55:34.151Z,25.80
2022-12-15T20:00:40.608Z,25.90
2022-12-15T20:05:45.526Z,28.80
2022-12-15T20:10:52.083Z,26.90
2022-12-15T20:15:57.095Z,25.20
2022-12-15T20:21:02.190Z,26.70
2022-12-15T20:26:08.105Z,27.30
2022-12-15T20:31:18.900Z,26.10
2022-12-15T20:36:27.603Z,27.90
2022-12-15T20:41:32.128Z,25.30
2022-12-15T20:46:37.543Z,47.10
2022-12-15T20:51:42.985Z,43.00
2022-12-15T20:56:48.190Z,38.30
2022-12-15T21:01:53.311Z,36.80
2022-12-15T21:07:00.432Z,22.90
2022-12-15T21:12:25.677Z,30.90
2022-12-15T21:17:31.646Z,33.80
2022-12-15T21:22:36.321Z,40.00
2022-12-15T21:27:41.096Z,38.10
2022-12-15T21:32:47.151Z,37.70
2022-12-15T21:37:53.431Z,53.50
2022-12-15T21:43:06.826Z,53.50
2022-12-15T21:48:31.729Z,62.30
2022-12-15T21:53:36.610Z,43.50
2022-12-15T21:58:42.329Z,50.10
2022-12-15T22:03:54.630Z,52.40
2022-12-15T22:09:00.453Z,52.90
2022-12-15T22:14:35.502Z,50.00
2022-12-15T22:19:39.828Z,55.10
2022-12-15T22:24:44.637Z,64.80
2022-12-15T22:29:49.777Z,66.50
2022-12-15T22:34:53.715Z,67.20
2022-12-15T22:39:57.072Z,64.30
2022-12-15T22:45:00.633Z,60.50
2022-12-15T22:50:07.156Z,39.20
2022-12-15T22:55:16.658Z,45.60
2022-12-15T23:00:22.024Z,52.10
2022-12-15T23:05:27.268Z,49.20
2022-12-15T23:10:50.472Z,50.50
2022-12-15T23:16:14.777Z,55.50
2022-12-15T23:21:22.925Z,56.80
2022-12-15T23:26:28.202Z,43.70
2022-12-15T23:31:33.036Z,57.00
2022-12-15T23:36:38.085Z,43.10
2022-12-15T23:41:43.332Z,37.30
2022-12-15T23:46:48.902Z,51.80
2022-12-15T23:51:52.886Z,55.30
2022-12-15T23:56:59.579Z,58.80
